Home > Products > Valid Products > TAF

000
FTUS45 KGJT 251138
TAFGJT
TAF
KGJT 251138Z 2512/2612 12007KT P6SM SKC
     FM251900 31005KT P6SM SKC
     FM260100 06004KT P6SM SKC
     FM260500 10007KT P6SM SCT100 SCT250=



000
FTUS45 KGJT 251138
TAFGJT
TAF
KGJT 251138Z 2512/2612 12007KT P6SM SKC
     FM251900 31005KT P6SM SKC
     FM260100 06004KT P6SM SKC
     FM260500 10007KT P6SM SCT100 SCT250=



000
FTUS45 KGJT 250520
TAFGJT
TAF
KGJT 250520Z 2506/2606 12007KT P6SM SKC
     FM251900 31005KT P6SM SKC
     FM260100 06004KT P6SM SKC=



000
FTUS45 KGJT 242320
TAFGJT
TAF
KGJT 242320Z 2500/2524 34007KT P6SM SKC
     FM250100 08005KT P6SM SKC
     FM250700 12010KT P6SM SKC
     FM251900 31005KT P6SM SKC=



000
FTUS45 KGJT 241724
TAFGJT
TAF
KGJT 241724Z 2418/2518 16006KT P6SM SKC
     FM242000 28005KT P6SM SKC
     FM250100 08005KT P6SM SKC
     FM250700 12010KT P6SM SKC=



000
FTUS45 KGJT 241138
TAFGJT
TAF
KGJT 241138Z 2412/2512 14007KT P6SM SCT250
     FM241900 28005KT P6SM SKC
     FM250100 08005KT P6SM SKC
     FM250700 11010KT P6SM SKC=



000
FTUS45 KGJT 240520
TAFGJT
TAF
KGJT 240520Z 2406/2506 08005KT P6SM BKN250
     FM241000 13005KT P6SM BKN250
     FM241900 29007KT P6SM FEW140 SCT250
     FM250100 08005KT P6SM SCT250=



000
FTUS45 KGJT 232324
TAFGJT
TAF
KGJT 232324Z 2400/2424 28007KT P6SM SCT250
     FM240100 07006KT P6SM SCT250
     FM240700 11010KT P6SM SCT250
     FM241900 29007KT P6SM FEW140 BKN250=



000
FTUS45 KGJT 231729
TAFGJT
TAF
KGJT 231729Z 2318/2418 15007KT P6SM SCT250
     FM232000 28007KT P6SM FEW140 SCT250
     FM240100 07006KT P6SM SCT250
     FM240700 11010KT P6SM SCT250=



000
FTUS45 KGJT 231120
TAFGJT
TAF
KGJT 231120Z 2312/2412 10005KT P6SM SKC
     FM231500 VRB05KT P6SM FEW220
     FM232000 24007KT P6SM FEW140 BKN250
     FM240100 05006KT P6SM SCT250
     FM240700 11010KT P6SM SKC=



000
FTUS45 KGJT 230520
TAFGJT
TAF
KGJT 230520Z 2306/2406 08005KT P6SM FEW250
     FM231500 VRB05KT P6SM FEW220
     FM232000 24007KT P6SM FEW140 BKN250
     FM240100 05006KT P6SM SCT250=



000
FTUS45 KGJT 230105 AAB
TAFGJT
TAF AMD
KGJT 230105Z 2301/2324 05006KT P6SM SKC
     FM230600 08005KT P6SM FEW220
     FM231500 VRB05KT P6SM FEW220
     FM232000 24007KT P6SM FEW140 BKN220=



000
FTUS45 KGJT 230105 AAB
TAFGJT
TAF AMD
KGJT 230105Z 2301/2324 05006KT P6SM SKC
     FM230600 08005KT P6SM FEW220
     FM231500 VRB05KT P6SM FEW220
     FM232000 24007KT P6SM FEW140 BKN220=



000
FTUS45 KGJT 222341
TAFGJT
TAF
KGJT 222341Z 2300/2324 01006KT P6SM SKC
     FM230600 08005KT P6SM FEW220
     FM231500 VRB05KT P6SM FEW220
     FM232000 24007KT P6SM FEW140 BKN220=



000
FTUS45 KGJT 221725
TAFGJT
TAF
KGJT 221725Z 2218/2318 VRB03KT P6SM SCT100
     FM222100 32007KT P6SM SCT100
     FM230600 08005KT P6SM SCT250
     FM231600 VRB05KT P6SM SCT250=



000
FTUS45 KGJT 221725
TAFGJT
TAF
KGJT 221725Z 2218/2318 VRB03KT P6SM SCT100
     FM222100 32007KT P6SM SCT100
     FM230600 08005KT P6SM SCT250
     FM231600 VRB05KT P6SM SCT250=



    US Dept of Commerce
    National Oceanic and Atmospheric Administration
    National Weather Service
    1325 East West Highway
    Silver Spring, MD 20910
    Page Author: NWS Internet Services Team
Disclaimer
Information Quality
Credits
Glossary
Privacy Policy
Freedom of Information Act (FOIA)
About Us
Career Opportunities